Time;durP1;ratioP1;P1;durP2;ratioP2;P2;SDS_P1;SDS_P2;PMS_P1;PMS_P2;Temp;Humidity;BMP_temperature;BMP_pressure;BME280_temperature;BME280_humidity;BME280_pressure;Samples;Min_cycle;Max_cycle;Signal;HPM_P1;HPM_P2
2022/11/08 00:03:34;;;;;;;16.83;9.20;;;26.50;99.90;;;;;;5053433;28;20380;-67
2022/11/08 00:14:20;;;;;;;34.28;18.65;;;26.50;99.90;;;;;;4952864;29;20425;-67
2022/11/08 00:16:46;;;;;;;23.70;13.98;;;26.50;99.90;;;;;;4933449;29;20047;-67
2022/11/08 00:19:13;;;;;;;22.10;10.85;;;26.50;99.90;;;;;;4933923;29;20043;-67
2022/11/08 00:21:39;;;;;;;14.43;9.70;;;26.40;99.90;;;;;;4933748;29;20112;-66
2022/11/08 00:24:06;;;;;;;22.40;10.57;;;26.40;99.90;;;;;;4933547;29;20046;-67
2022/11/08 00:26:32;;;;;;;13.93;9.50;;;26.50;99.90;;;;;;4934097;29;20512;-66
2022/11/08 00:28:59;;;;;;;20.42;10.70;;;26.50;99.90;;;;;;4933895;29;20044;-67
2022/11/08 00:31:26;;;;;;;17.45;10.70;;;26.60;99.90;;;;;;4933728;29;20035;-68
2022/11/08 00:33:52;;;;;;;16.35;10.68;;;26.60;99.90;;;;;;4940461;29;20126;-68
2022/11/08 00:36:19;;;;;;;22.55;11.57;;;26.70;99.90;;;;;;4933664;29;20412;-67
2022/11/08 00:38:48;;;;;;;15.93;9.57;;;26.70;99.90;;;;;;4933738;29;20059;-67
2022/11/08 00:41:15;;;;;;;21.30;12.90;;;26.70;99.90;;;;;;4933732;29;20383;-67
2022/11/08 00:43:41;;;;;;;17.75;12.07;;;26.80;99.90;;;;;;4933661;29;20023;-67
2022/11/08 00:46:08;;;;;;;18.23;12.55;;;26.80;99.90;;;;;;4957363;28;20083;-67
2022/11/08 00:48:35;;;;;;;20.77;14.00;;;26.90;99.90;;;;;;4981231;28;20443;-67
2022/11/08 00:51:03;;;;;;;24.42;15.32;;;26.90;99.90;;;;;;5021031;28;20045;-66
2022/11/08 00:53:30;;;;;;;24.83;18.40;;;27.00;99.90;;;;;;5042660;28;20094;-67
2022/11/08 00:56:09;;;;;;;26.90;17.67;;;27.00;99.90;;;;;;5042213;28;20056;-67
2022/11/08 00:58:35;;;;;;;30.48;20.38;;;27.10;99.90;;;;;;5054870;28;20024;-67
2022/11/08 01:01:10;;;;;;;27.40;19.95;;;27.00;99.90;;;;;;5056553;28;20103;-67
2022/11/08 01:03:37;;;;;;;32.17;22.73;;;27.10;99.90;;;;;;5056527;28;20083;-67
2022/11/08 01:06:06;;;;;;;37.78;24.13;;;27.20;99.90;;;;;;5056672;28;20435;-67
2022/11/08 01:08:33;;;;;;;40.38;28.48;;;27.30;99.90;;;;;;5056703;28;20127;-67
2022/11/08 01:11:03;;;;;;;62.63;45.10;;;27.30;99.90;;;;;;5056565;28;20374;-67
2022/11/08 01:13:30;;;;;;;39.95;29.88;;;27.30;99.90;;;;;;5056585;28;20025;-67
2022/11/08 01:15:56;;;;;;;39.58;29.13;;;27.40;99.90;;;;;;5056876;28;20025;-66
2022/11/08 01:18:23;;;;;;;84.72;61.22;;;27.50;99.90;;;;;;5057471;28;20477;-65
2022/11/08 01:20:50;;;;;;;55.17;40.47;;;27.70;99.90;;;;;;5057647;28;20613;-66
2022/11/08 01:23:18;;;;;;;50.42;32.60;;;27.80;99.90;;;;;;5057664;28;20029;-66
2022/11/08 01:25:46;;;;;;;51.03;31.80;;;27.90;99.90;;;;;;5056968;28;20024;-66
2022/11/08 01:28:13;;;;;;;35.55;26.67;;;27.90;99.90;;;;;;5056799;28;20060;-67
2022/11/08 01:30:41;;;;;;;32.45;24.30;;;27.90;99.90;;;;;;5056977;28;20115;-66
2022/11/08 01:33:09;;;;;;;34.35;24.25;;;28.00;99.90;;;;;;5056815;28;20029;-67
2022/11/08 01:35:36;;;;;;;39.40;24.98;;;28.10;99.90;;;;;;5056833;28;20021;-67
2022/11/08 01:38:04;;;;;;;121.55;74.68;;;28.30;99.90;;;;;;5056715;28;20040;-67
2022/11/08 01:40:32;;;;;;;90.68;52.58;;;28.30;99.90;;;;;;5056654;28;20104;-66
2022/11/08 01:42:58;;;;;;;354.10;199.60;;;28.40;99.90;;;;;;5056715;28;20500;-65
2022/11/08 01:46:04;;;;;;;462.85;264.58;;;28.60;99.90;;;;;;5057410;28;20032;-66
2022/11/08 01:48:31;;;;;;;81.95;46.08;;;28.70;99.90;;;;;;5059159;28;20484;-66
2022/11/08 01:50:59;;;;;;;149.88;65.57;;;28.80;99.90;;;;;;5055898;28;20444;-67
2022/11/08 01:53:27;;;;;;;34.05;23.40;;;28.80;99.90;;;;;;5047340;28;20086;-65
2022/11/08 01:55:54;;;;;;;34.33;24.67;;;28.70;99.90;;;;;;5036017;28;20030;-64
2022/11/08 01:58:24;;;;;;;37.70;26.27;;;28.80;99.90;;;;;;5035634;28;20418;-65
2022/11/08 02:00:52;;;;;;;38.42;25.05;;;28.90;99.90;;;;;;5035350;28;20025;-64
2022/11/08 02:03:20;;;;;;;90.95;50.25;;;29.10;99.90;;;;;;5035614;28;20071;-65
2022/11/08 02:05:47;;;;;;;28.13;22.38;;;29.00;99.90;;;;;;5034368;28;20421;-64
2022/11/08 02:08:17;;;;;;;34.35;25.52;;;29.00;99.90;;;;;;5035138;28;20501;-64
2022/11/08 02:10:47;;;;;;;38.97;24.75;;;29.00;99.90;;;;;;5035514;28;20104;-64
2022/11/08 02:13:18;;;;;;;33.22;25.40;;;29.00;99.90;;;;;;5035345;28;20025;-64
2022/11/08 02:15:46;;;;;;;43.15;31.58;;;29.10;99.90;;;;;;5034602;28;20116;-64
2022/11/08 02:18:13;;;;;;;52.97;30.55;;;29.20;99.90;;;;;;5044678;28;20040;-63
2022/11/08 02:20:50;;;;;;;43.33;28.58;;;29.30;99.90;;;;;;5039354;28;20112;-64
2022/11/08 02:23:29;;;;;;;38.95;30.25;;;29.30;99.90;;;;;;5045473;28;20021;-63
2022/11/08 02:25:55;;;;;;;36.78;28.02;;;29.30;99.90;;;;;;5054940;28;20107;-63
2022/11/08 02:28:22;;;;;;;35.75;27.92;;;29.30;99.90;;;;;;5041767;28;20057;-64
2022/11/08 02:30:48;;;;;;;39.72;28.75;;;29.30;99.90;;;;;;5034997;28;20040;-64
2022/11/08 02:33:15;;;;;;;32.60;22.33;;;29.30;99.90;;;;;;5035128;28;20127;-64
2022/11/08 02:35:46;;;;;;;34.15;25.70;;;29.40;99.90;;;;;;5035202;28;20493;-65
2022/11/08 02:38:12;;;;;;;37.08;26.48;;;29.50;99.90;;;;;;5041531;28;20079;-64
2022/11/08 02:40:59;;;;;;;33.92;28.45;;;29.50;99.90;;;;;;5055046;28;20025;-64
2022/11/08 02:43:26;;;;;;;39.90;25.95;;;29.50;99.90;;;;;;5054522;28;20024;-64
2022/11/08 02:45:52;;;;;;;34.88;27.10;;;29.50;99.90;;;;;;5054233;28;20029;-64
2022/11/08 02:48:19;;;;;;;42.05;27.10;;;29.60;99.90;;;;;;5054252;28;20024;-63
2022/11/08 02:50:46;;;;;;;45.55;30.50;;;29.70;99.90;;;;;;5054274;28;20029;-63
2022/11/08 02:53:13;;;;;;;41.25;30.30;;;29.70;99.90;;;;;;5054137;28;20529;-63
2022/11/08 02:55:39;;;;;;;41.15;30.52;;;29.80;99.90;;;;;;5054156;28;20061;-63
2022/11/08 02:58:06;;;;;;;36.25;29.27;;;29.80;99.90;;;;;;5054135;28;20017;-65
2022/11/08 03:00:33;;;;;;;46.60;35.10;;;29.70;99.90;;;;;;5053920;28;20025;-66
2022/11/08 03:03:00;;;;;;;42.63;33.35;;;29.70;99.90;;;;;;5054318;28;20487;-66
2022/11/08 03:05:27;;;;;;;45.70;33.50;;;29.80;99.90;;;;;;5044119;28;20099;-65
2022/11/08 03:07:55;;;;;;;45.10;33.42;;;29.90;99.90;;;;;;5053414;28;20029;-65
2022/11/08 03:10:25;;;;;;;44.70;32.60;;;30.00;99.90;;;;;;5053976;28;20461;-67
2022/11/08 03:12:56;;;;;;;56.67;29.95;;;30.20;99.90;;;;;;5051832;28;20244;-65
2022/11/08 03:15:23;;;;;;;31.67;25.05;;;30.30;99.90;;;;;;5042586;28;20112;-66
2022/11/08 03:17:50;;;;;;;30.55;22.77;;;30.50;99.90;;;;;;5034081;28;20021;-67
2022/11/08 03:20:17;;;;;;;36.40;22.88;;;30.50;99.90;;;;;;5033231;28;20029;-67
2022/11/08 03:22:44;;;;;;;41.42;26.02;;;30.50;99.90;;;;;;5033821;28;20023;-65
2022/11/08 03:25:11;;;;;;;30.95;23.23;;;30.50;99.90;;;;;;5033827;28;20037;-67
2022/11/08 03:27:38;;;;;;;36.13;23.73;;;30.60;99.90;;;;;;5033861;28;20045;-67
2022/11/08 03:30:06;;;;;;;33.13;25.15;;;30.60;99.90;;;;;;5033566;28;20109;-65
2022/11/08 03:32:32;;;;;;;39.75;25.35;;;30.70;99.90;;;;;;5033626;28;20379;-64
2022/11/08 03:34:59;;;;;;;36.90;26.27;;;30.80;99.90;;;;;;5033560;28;20342;-65
2022/11/08 03:37:26;;;;;;;27.08;20.75;;;30.90;99.90;;;;;;5033572;28;20506;-64
2022/11/08 03:39:52;;;;;;;26.45;20.25;;;30.80;99.90;;;;;;5033666;28;20025;-65
2022/11/08 03:42:19;;;;;;;32.95;24.77;;;30.80;99.90;;;;;;5033783;28;20419;-63
2022/11/08 03:44:46;;;;;;;33.72;24.17;;;30.70;99.90;;;;;;5033330;28;20029;-64
2022/11/08 03:47:12;;;;;;;34.63;24.15;;;30.80;99.90;;;;;;5041164;28;20068;-65
2022/11/08 03:49:39;;;;;;;29.13;21.65;;;30.90;99.90;;;;;;5036671;28;20030;-64
2022/11/08 03:52:05;;;;;;;31.50;23.77;;;31.00;99.90;;;;;;5033218;28;20084;-64
2022/11/08 03:54:32;;;;;;;32.45;23.42;;;31.00;99.90;;;;;;5033195;28;20040;-64
2022/11/08 03:56:58;;;;;;;32.22;23.58;;;31.00;99.90;;;;;;5033374;28;20018;-65
2022/11/08 03:59:25;;;;;;;34.03;22.52;;;31.20;99.90;;;;;;5033192;28;20037;-65
2022/11/08 04:01:51;;;;;;;28.10;19.88;;;31.10;99.90;;;;;;5033337;28;20052;-65
2022/11/08 04:04:18;;;;;;;26.05;20.63;;;31.20;99.90;;;;;;5036173;28;20061;-66
2022/11/08 04:06:44;;;;;;;28.13;17.50;;;31.20;99.90;;;;;;5045707;28;20028;-65
2022/11/08 04:09:11;;;;;;;30.58;25.30;;;31.10;99.90;;;;;;5034309;28;20064;-66
2022/11/08 04:17:10;;;;;;;26.27;16.35;;;30.90;99.90;;;;;;4974644;28;20519;-64
2022/11/08 04:22:23;;;;;;;19.63;15.23;;;31.00;99.90;;;;;;4991530;28;20414;-64
2022/11/08 04:24:50;;;;;;;21.73;16.10;;;31.20;99.90;;;;;;4991417;28;20030;-65
2022/11/08 04:27:16;;;;;;;16.08;13.30;;;31.30;99.90;;;;;;4991342;28;20388;-64
2022/11/08 04:29:43;;;;;;;19.75;15.23;;;31.40;99.90;;;;;;4991505;28;20511;-67
2022/11/08 04:32:10;;;;;;;17.73;11.63;;;31.60;99.90;;;;;;4994528;28;20039;-65
2022/11/08 04:34:36;;;;;;;22.05;12.77;;;31.50;99.90;;;;;;4995205;28;20037;-64
2022/11/08 04:37:03;;;;;;;16.92;12.35;;;31.50;99.90;;;;;;4995597;28;20471;-65
2022/11/08 04:39:29;;;;;;;18.90;12.95;;;31.50;99.90;;;;;;4995283;28;20085;-64
2022/11/08 04:41:56;;;;;;;20.00;12.55;;;31.50;99.90;;;;;;4995688;28;20031;-65
2022/11/08 04:44:22;;;;;;;18.83;12.85;;;31.70;99.90;;;;;;4995321;28;20101;-66
2022/11/08 04:46:49;;;;;;;13.35;11.43;;;31.70;99.90;;;;;;4995100;28;20036;-64
2022/11/08 04:49:15;;;;;;;16.38;12.07;;;31.90;99.90;;;;;;4995183;28;20037;-66
2022/11/08 04:51:42;;;;;;;18.58;11.27;;;31.80;99.90;;;;;;4995252;28;20032;-64
2022/11/08 04:54:10;;;;;;;20.88;12.10;;;31.70;99.90;;;;;;5022941;28;20048;-64
2022/11/08 04:56:37;;;;;;;17.80;11.13;;;31.70;99.90;;;;;;5050302;28;20028;-65
2022/11/08 04:59:03;;;;;;;24.10;12.20;;;31.90;99.90;;;;;;5041459;28;20075;-65
2022/11/08 05:01:30;;;;;;;17.23;11.50;;;31.80;99.90;;;;;;5043415;28;20031;-65
2022/11/08 05:03:57;;;;;;;16.30;12.90;;;31.90;99.90;;;;;;5039943;28;20414;-63
2022/11/08 05:06:26;;;;;;;24.63;16.25;;;32.00;99.90;;;;;;5036497;28;20021;-65
2022/11/08 05:08:54;;;;;;;24.65;16.65;;;32.00;99.90;;;;;;5036215;28;20470;-63
2022/11/08 05:11:23;;;;;;;26.08;16.33;;;31.90;99.90;;;;;;5036258;28;20049;-66
2022/11/08 05:13:51;;;;;;;14.48;11.68;;;31.80;99.90;;;;;;5036346;28;20033;-68
2022/11/08 05:16:21;;;;;;;16.73;11.70;;;31.80;99.90;;;;;;5036180;28;20029;-70
2022/11/08 05:18:48;;;;;;;15.25;9.80;;;32.00;99.90;;;;;;5036474;28;20029;-69
2022/11/08 05:24:06;;;;;;;16.48;11.07;;;32.20;99.90;;;;;;5040903;28;20048;-69
2022/11/08 05:26:35;;;;;;;17.80;10.40;;;32.20;99.90;;;;;;5045271;28;20021;-69
2022/11/08 05:29:02;;;;;;;15.30;11.90;;;32.10;99.90;;;;;;5049862;28;20047;-69
2022/11/08 05:31:29;;;;;;;18.52;11.50;;;32.10;99.90;;;;;;5044800;28;20021;-65
2022/11/08 05:33:55;;;;;;;12.90;9.73;;;32.10;99.90;;;;;;5050530;28;20469;-65
2022/11/08 05:36:23;;;;;;;18.15;9.02;;;32.10;99.90;;;;;;5049146;28;20048;-66
2022/11/08 05:38:49;;;;;;;10.82;8.27;;;32.10;99.90;;;;;;5051307;28;20481;-68
2022/11/08 05:41:18;;;;;;;14.25;9.90;;;32.30;99.90;;;;;;5044589;28;20080;-70
2022/11/08 05:43:47;;;;;;;8.90;7.03;;;32.50;99.90;;;;;;5037360;28;20032;-68
2022/11/08 05:46:14;;;;;;;15.07;11.55;;;32.50;99.90;;;;;;5044496;28;20108;-69
2022/11/08 05:48:43;;;;;;;16.30;7.32;;;32.50;99.90;;;;;;5038286;28;20477;-68
2022/11/08 05:51:10;;;;;;;10.32;6.60;;;32.50;99.90;;;;;;5044303;28;20389;-69
2022/11/08 05:53:38;;;;;;;8.48;5.28;;;32.50;99.90;;;;;;5037833;28;20056;-69
2022/11/08 05:56:05;;;;;;;14.98;6.85;;;32.60;99.90;;;;;;5044299;28;20022;-69
2022/11/08 05:58:33;;;;;;;9.05;5.97;;;32.70;99.90;;;;;;5036893;28;20537;-68
2022/11/08 06:01:04;;;;;;;9.70;6.00;;;32.60;99.90;;;;;;5044686;28;20419;-69
2022/11/08 06:03:31;;;;;;;9.32;5.40;;;32.70;99.90;;;;;;5045167;28;20032;-66
2022/11/08 06:06:09;;;;;;;10.45;7.45;;;32.70;99.90;;;;;;5045177;28;20036;-66
2022/11/08 06:08:36;;;;;;;13.63;5.93;;;32.80;99.90;;;;;;5037001;28;20104;-66
2022/11/08 06:11:08;;;;;;;9.95;6.47;;;32.80;99.90;;;;;;5044623;28;20052;-70
2022/11/08 06:13:36;;;;;;;9.63;6.80;;;32.80;99.90;;;;;;5036011;28;20060;-71
2022/11/08 06:16:05;;;;;;;9.25;5.78;;;32.70;99.90;;;;;;5044974;28;20168;-72
2022/11/08 06:18:32;;;;;;;8.68;5.60;;;32.70;99.90;;;;;;5040010;28;20108;-72
2022/11/08 06:21:00;;;;;;;6.57;4.68;;;32.80;99.90;;;;;;5050862;28;20024;-68
2022/11/08 06:23:27;;;;;;;5.75;4.13;;;32.80;99.60;;;;;;5042463;28;20025;-69
2022/11/08 06:25:54;;;;;;;5.45;4.65;;;33.00;98.00;;;;;;5049545;28;20020;-70
2022/11/08 06:28:23;;;;;;;7.95;6.72;;;33.00;98.30;;;;;;5044737;28;20048;-69
2022/11/08 06:30:50;;;;;;;10.23;7.00;;;33.00;99.70;;;;;;5049879;28;20055;-70
2022/11/08 06:33:16;;;;;;;6.80;6.10;;;33.00;99.90;;;;;;5042877;28;20049;-70
2022/11/08 06:35:43;;;;;;;7.13;5.65;;;32.90;99.90;;;;;;5049120;28;20036;-70
2022/11/08 06:38:10;;;;;;;9.63;5.80;;;33.00;98.10;;;;;;5043391;28;20013;-68
2022/11/08 06:40:38;;;;;;;8.75;5.88;;;32.90;98.80;;;;;;5047268;28;20021;-70
2022/11/08 06:43:05;;;;;;;9.63;6.65;;;33.00;99.30;;;;;;5042609;28;20524;-70
2022/11/08 06:45:32;;;;;;;10.65;6.05;;;33.00;99.20;;;;;;5045286;28;20064;-70
2022/11/08 06:47:59;;;;;;;10.93;7.25;;;33.10;99.20;;;;;;5042057;28;20044;-70
2022/11/08 06:50:27;;;;;;;11.02;5.53;;;33.10;99.60;;;;;;5037078;28;20021;-70
2022/11/08 06:52:59;;;;;;;6.75;5.50;;;33.30;98.20;;;;;;5040513;28;20469;-70
2022/11/08 06:55:26;;;;;;;9.45;5.43;;;33.20;98.10;;;;;;5041543;28;20029;-70
2022/11/08 06:57:55;;;;;;;6.72;5.28;;;33.20;98.00;;;;;;5043754;28;20017;-70
2022/11/08 07:00:23;;;;;;;9.52;6.47;;;33.10;97.30;;;;;;5042249;28;20445;-70
2022/11/08 07:02:52;;;;;;;7.15;6.43;;;33.10;98.50;;;;;;5040412;28;20026;-70
2022/11/08 07:05:19;;;;;;;8.02;6.43;;;33.00;99.10;;;;;;5041562;28;20020;-70
2022/11/08 07:07:50;;;;;;;10.10;6.85;;;32.90;99.40;;;;;;5041715;28;20029;-70
2022/11/08 07:10:19;;;;;;;9.53;6.77;;;33.00;99.60;;;;;;5045516;28;20412;-70
2022/11/08 07:12:46;;;;;;;11.30;6.78;;;33.10;99.30;;;;;;5040793;28;20078;-70
2022/11/08 07:15:13;;;;;;;16.73;7.85;;;33.10;98.80;;;;;;5042824;28;20033;-70
2022/11/08 07:17:40;;;;;;;9.30;6.13;;;33.00;99.10;;;;;;5045027;28;20477;-70
2022/11/08 07:20:07;;;;;;;6.32;5.20;;;33.00;98.30;;;;;;5045700;28;20017;-70
2022/11/08 07:22:34;;;;;;;8.05;6.10;;;33.10;97.00;;;;;;5041027;28;20018;-69
2022/11/08 07:25:01;;;;;;;9.60;7.47;;;33.00;97.50;;;;;;5041687;28;20025;-70
2022/11/08 07:27:28;;;;;;;11.75;8.95;;;33.00;98.30;;;;;;5042585;28;20389;-69
2022/11/08 07:29:54;;;;;;;12.85;7.40;;;33.10;98.10;;;;;;5043291;28;20032;-67
2022/11/08 07:32:23;;;;;;;10.93;7.97;;;33.00;98.90;;;;;;5041719;28;20044;-68
2022/11/08 07:34:50;;;;;;;18.40;11.18;;;33.00;98.80;;;;;;5042062;28;20111;-70
2022/11/08 07:37:16;;;;;;;12.98;9.45;;;33.00;98.60;;;;;;5046784;28;20029;-70
2022/11/08 07:39:43;;;;;;;12.48;7.80;;;33.00;98.20;;;;;;5036404;28;20025;-69
2022/11/08 07:42:09;;;;;;;10.95;7.30;;;33.10;97.80;;;;;;5044169;28;20037;-69
2022/11/08 07:44:36;;;;;;;7.63;6.22;;;33.10;97.90;;;;;;5044597;28;20075;-70
2022/11/08 07:47:02;;;;;;;20.42;13.57;;;33.20;97.10;;;;;;5042167;28;20025;-69
2022/11/08 07:49:29;;;;;;;15.10;9.82;;;33.20;97.50;;;;;;5036113;28;20502;-70
2022/11/08 07:51:55;;;;;;;14.57;9.50;;;33.30;97.60;;;;;;5042202;28;20032;-70
2022/11/08 07:54:22;;;;;;;13.18;6.90;;;33.30;97.40;;;;;;5035758;28;20096;-70
2022/11/08 07:56:48;;;;;;;12.40;8.43;;;33.30;96.00;;;;;;5042256;28;20021;-70
2022/11/08 07:59:15;;;;;;;13.35;8.25;;;33.30;96.90;;;;;;5035772;28;20095;-69
2022/11/08 08:01:41;;;;;;;11.73;7.55;;;33.40;96.40;;;;;;5043504;28;20055;-70
2022/11/08 08:04:10;;;;;;;8.90;7.03;;;33.40;97.30;;;;;;5045227;28;20029;-68
2022/11/08 08:06:37;;;;;;;9.40;6.63;;;33.40;96.40;;;;;;5041474;28;20032;-68
2022/11/08 08:09:04;;;;;;;15.57;10.73;;;33.30;96.70;;;;;;5044644;28;20040;-67
2022/11/08 08:11:30;;;;;;;10.38;7.43;;;33.30;97.30;;;;;;5033506;28;20474;-67
2022/11/08 08:13:57;;;;;;;11.30;8.25;;;33.30;96.90;;;;;;5044283;28;20064;-67
2022/11/08 08:16:23;;;;;;;12.90;8.48;;;33.30;96.50;;;;;;5025994;28;20037;-67
2022/11/08 08:18:52;;;;;;;15.68;11.23;;;33.40;96.70;;;;;;5043984;28;20135;-67
2022/11/08 08:21:19;;;;;;;11.15;7.25;;;33.50;96.90;;;;;;5044537;28;20507;-67
2022/11/08 08:23:45;;;;;;;9.95;6.15;;;33.50;95.40;;;;;;5035497;28;20060;-66
2022/11/08 08:26:12;;;;;;;8.80;6.47;;;33.50;96.10;;;;;;5045560;28;20470;-67
2022/11/08 08:28:39;;;;;;;7.95;6.35;;;33.50;95.30;;;;;;5040050;28;20077;-67
2022/11/08 08:31:05;;;;;;;7.78;6.15;;;33.50;95.00;;;;;;5044660;28;20025;-68
2022/11/08 08:33:32;;;;;;;10.40;5.93;;;33.50;95.20;;;;;;5044657;28;20025;-66
2022/11/08 08:36:00;;;;;;;13.48;7.57;;;33.50;95.20;;;;;;5045951;28;20597;-65
2022/11/08 08:38:27;;;;;;;14.93;7.90;;;33.50;94.50;;;;;;5048009;28;20029;-68
2022/11/08 08:40:56;;;;;;;9.90;6.68;;;33.50;95.10;;;;;;5044800;28;20029;-67
2022/11/08 08:43:23;;;;;;;17.90;7.28;;;33.40;94.60;;;;;;5045104;28;20132;-68
2022/11/08 08:45:50;;;;;;;11.75;7.78;;;33.40;95.00;;;;;;5047693;28;20033;-70
2022/11/08 08:48:16;;;;;;;10.43;7.82;;;33.40;94.00;;;;;;5047501;28;20025;-69
2022/11/08 08:50:43;;;;;;;15.02;10.27;;;33.40;95.30;;;;;;5049916;28;20025;-70
2022/11/08 08:53:10;;;;;;;14.30;9.10;;;33.40;94.60;;;;;;5043312;28;20025;-68
2022/11/08 08:55:38;;;;;;;20.10;8.65;;;33.40;95.70;;;;;;5050297;28;20472;-69
2022/11/08 08:58:05;;;;;;;15.63;8.30;;;33.40;95.80;;;;;;5052553;28;20032;-69
2022/11/08 09:00:32;;;;;;;15.05;9.65;;;33.40;96.00;;;;;;5052648;28;20021;-67
2022/11/08 09:03:09;;;;;;;18.95;11.18;;;33.40;96.10;;;;;;5043818;28;20025;-67
2022/11/08 09:05:36;;;;;;;17.13;11.30;;;33.30;95.60;;;;;;5042470;28;20017;-67
2022/11/08 09:08:03;;;;;;;64.50;38.50;;;33.30;95.80;;;;;;5041748;28;20032;-66
2022/11/08 09:10:33;;;;;;;47.55;29.05;;;33.30;96.20;;;;;;5045231;28;20377;-71
2022/11/08 09:13:01;;;;;;;18.83;13.13;;;33.20;95.90;;;;;;5038847;28;20044;-66
2022/11/08 09:15:28;;;;;;;51.35;34.00;;;33.10;95.60;;;;;;5032332;28;20482;-67
2022/11/08 09:17:55;;;;;;;48.28;30.23;;;33.10;96.30;;;;;;5033380;28;20029;-65
2022/11/08 09:20:22;;;;;;;47.50;29.77;;;33.10;96.40;;;;;;5041276;28;20091;-67
2022/11/08 09:22:49;;;;;;;81.82;51.97;;;33.00;96.20;;;;;;5040477;28;20028;-66
2022/11/08 09:25:16;;;;;;;47.80;24.77;;;33.10;97.00;;;;;;5042522;28;20025;-62
2022/11/08 09:27:42;;;;;;;32.03;21.00;;;32.90;96.80;;;;;;5045551;28;20041;-66
2022/11/08 09:30:09;;;;;;;42.72;23.35;;;32.90;97.10;;;;;;5043336;28;20109;-67
2022/11/08 09:32:36;;;;;;;47.20;30.17;;;32.90;97.70;;;;;;5043373;28;20182;-63
2022/11/08 09:35:03;;;;;;;75.95;40.35;;;32.90;97.30;;;;;;5043971;28;20029;-66
2022/11/08 09:37:29;;;;;;;69.13;37.28;;;32.90;97.90;;;;;;5046027;28;20028;-67
2022/11/08 09:39:56;;;;;;;65.68;39.92;;;32.80;97.80;;;;;;5049955;28;20351;-66
2022/11/08 09:42:34;;;;;;;52.85;32.33;;;32.80;98.00;;;;;;5048006;28;20029;-66
2022/11/08 09:45:11;;;;;;;47.13;27.92;;;32.80;97.90;;;;;;5043596;28;20075;-65
2022/11/08 09:47:40;;;;;;;43.72;22.42;;;32.70;98.20;;;;;;5042399;28;20025;-66
2022/11/08 09:50:17;;;;;;;45.75;23.70;;;32.70;98.60;;;;;;5035188;28;20030;-65
2022/11/08 09:52:50;;;;;;;87.20;52.22;;;32.70;98.70;;;;;;5043552;28;20383;-66
2022/11/08 09:55:26;;;;;;;153.63;109.55;;;32.70;99.20;;;;;;5044194;28;20492;-64
2022/11/08 09:58:02;;;;;;;65.60;41.35;;;32.70;99.20;;;;;;5045016;28;20032;-65
2022/11/08 10:00:29;;;;;;;47.28;31.65;;;32.60;99.80;;;;;;5042518;28;20044;-65
2022/11/08 10:02:57;;;;;;;152.57;87.88;;;32.50;99.90;;;;;;5042945;28;20060;-64
2022/11/08 10:05:33;;;;;;;70.47;44.65;;;32.50;99.90;;;;;;5044236;28;20024;-64
2022/11/08 10:08:04;;;;;;;107.68;68.35;;;32.40;99.90;;;;;;5046897;28;20022;-66
2022/11/08 10:10:56;;;;;;;90.38;55.30;;;32.30;99.90;;;;;;5045950;28;20398;-66
2022/11/08 10:13:33;;;;;;;68.38;39.30;;;32.30;99.90;;;;;;4963564;28;20050;-67
2022/11/08 10:16:26;;;;;;;156.50;125.03;;;32.20;99.90;;;;;;4966792;28;20037;-64
2022/11/08 10:19:14;;;;;;;452.65;377.70;;;32.20;99.90;;;;;;4964636;28;20038;-62
2022/11/08 10:22:11;;;;;;;988.05;573.55;;;32.20;99.90;;;;;;4967776;28;20114;-64
2022/11/08 10:25:00;;;;;;;453.25;205.77;;;32.20;99.90;;;;;;4964691;28;20387;-63
2022/11/08 10:27:35;;;;;;;478.70;198.73;;;32.00;99.90;;;;;;4953646;28;20057;-64
2022/11/08 10:30:12;;;;;;;273.45;119.95;;;32.00;99.90;;;;;;4957895;28;20031;-64
2022/11/08 10:32:39;;;;;;;136.07;76.03;;;31.90;99.90;;;;;;4966053;28;20033;-64
2022/11/08 10:35:38;;;;;;;158.27;93.70;;;31.90;99.90;;;;;;4966147;28;20135;-64
2022/11/08 10:38:24;;;;;;;180.40;110.72;;;31.90;99.90;;;;;;4969108;28;20452;-63
2022/11/08 10:40:59;;;;;;;153.95;87.40;;;31.80;99.90;;;;;;4966308;28;20668;-65
2022/11/08 10:43:48;;;;;;;97.47;58.60;;;31.70;99.90;;;;;;4965716;28;20031;-64
2022/11/08 10:46:29;;;;;;;152.40;95.03;;;31.70;99.90;;;;;;4963952;28;20031;-64
2022/11/08 10:49:04;;;;;;;91.80;53.38;;;31.70;99.90;;;;;;4966444;28;20027;-67
2022/11/08 10:51:31;;;;;;;124.82;79.57;;;31.70;99.90;;;;;;4963202;28;20035;-64
2022/11/08 10:53:57;;;;;;;106.25;62.08;;;31.70;99.90;;;;;;4963443;28;20027;-63
2022/11/08 10:56:24;;;;;;;94.65;57.40;;;31.50;99.90;;;;;;4968150;28;20038;-63
2022/11/08 10:58:50;;;;;;;96.95;59.78;;;31.50;99.90;;;;;;4963087;28;20027;-63
2022/11/08 11:01:20;;;;;;;71.20;40.97;;;31.50;99.90;;;;;;4965721;28;20147;-63
2022/11/08 11:03:48;;;;;;;83.15;48.00;;;31.50;99.90;;;;;;4962679;28;20098;-63
2022/11/08 11:06:29;;;;;;;72.85;42.15;;;31.50;99.90;;;;;;4961342;28;20019;-63
2022/11/08 11:08:58;;;;;;;72.07;40.70;;;31.50;99.90;;;;;;4973776;28;20048;-63
2022/11/08 11:11:34;;;;;;;64.50;39.70;;;31.50;99.90;;;;;;5039511;28;20029;-61
2022/11/08 11:14:07;;;;;;;170.43;127.85;;;31.50;99.90;;;;;;5042972;28;20068;-63
2022/11/08 11:16:36;;;;;;;72.68;39.30;;;31.50;99.90;;;;;;5020742;28;20033;-63
2022/11/08 11:19:05;;;;;;;104.10;54.83;;;31.40;99.90;;;;;;5046229;28;20603;-63
2022/11/08 11:21:39;;;;;;;84.75;43.35;;;31.30;99.90;;;;;;5045552;28;20184;-61
2022/11/08 11:24:10;;;;;;;100.40;55.50;;;31.40;99.90;;;;;;5041780;28;20107;-63
2022/11/08 11:26:43;;;;;;;;;;;31.30;99.90;;;;;;5042259;28;20021;-62
2022/11/08 11:29:09;;;;;;;115.18;66.53;;;31.30;99.90;;;;;;5042423;28;19917;-64
2022/11/08 11:31:38;;;;;;;119.35;63.85;;;31.20;99.90;;;;;;5042035;28;20148;-62
2022/11/08 11:34:39;;;;;;;114.07;51.22;;;31.20;99.90;;;;;;5042270;28;20099;-60
2022/11/08 11:37:05;;;;;;;64.50;34.55;;;31.20;99.90;;;;;;5042068;28;20033;-63
2022/11/08 11:39:44;;;;;;;61.83;32.53;;;31.10;99.90;;;;;;5042233;28;20099;-60
2022/11/08 11:42:22;;;;;;;83.85;43.38;;;31.00;99.90;;;;;;5038838;28;20033;-62
2022/11/08 11:45:17;;;;;;;91.10;53.72;;;31.00;99.90;;;;;;5039805;28;20033;-60
2022/11/08 11:47:50;;;;;;;65.32;36.67;;;30.90;99.90;;;;;;5040373;28;20039;-62
2022/11/08 11:50:18;;;;;;;82.00;47.45;;;30.80;99.90;;;;;;5042588;28;20033;-64
2022/11/08 11:52:45;;;;;;;83.10;44.28;;;30.80;99.90;;;;;;5043134;28;20418;-62
2022/11/08 11:55:15;;;;;;;73.10;41.38;;;30.80;99.90;;;;;;5043252;28;20029;-62
2022/11/08 11:58:03;;;;;;;73.05;41.47;;;30.90;99.90;;;;;;5040632;28;20545;-63
2022/11/08 12:00:29;;;;;;;124.57;57.10;;;30.80;99.90;;;;;;5043553;28;20098;-62
2022/11/08 12:03:11;;;;;;;113.22;51.72;;;30.60;99.90;;;;;;5043704;28;21381;-62
2022/11/08 12:06:05;;;;;;;54.10;33.20;;;30.60;99.90;;;;;;5043729;28;20032;-64
2022/11/08 12:08:34;;;;;;;45.58;27.25;;;30.50;99.90;;;;;;4953008;28;20621;-63
2022/11/08 12:11:02;;;;;;;59.22;31.77;;;30.50;99.90;;;;;;4953102;28;20035;-64
2022/11/08 12:14:00;;;;;;;47.35;27.80;;;30.50;99.90;;;;;;4955108;28;20052;-63
2022/11/08 12:16:44;;;;;;;51.75;29.40;;;30.40;99.90;;;;;;4920387;29;20065;-63
2022/11/08 12:19:18;;;;;;;49.45;30.33;;;30.40;99.90;;;;;;4920752;29;20425;-63
2022/11/08 12:21:47;;;;;;;56.08;32.38;;;30.40;99.90;;;;;;4913054;29;20881;-64
2022/11/08 12:24:37;;;;;;;46.25;27.60;;;30.30;99.90;;;;;;4914475;29;20032;-63
2022/11/08 12:27:14;;;;;;;37.50;23.08;;;30.20;99.90;;;;;;4893218;29;20056;-62
2022/11/08 12:30:00;;;;;;;36.47;24.08;;;30.10;99.90;;;;;;4892886;29;20075;-64
2022/11/08 12:32:27;;;;;;;40.03;24.50;;;30.00;99.90;;;;;;4893836;29;20036;-63
2022/11/08 12:35:26;;;;;;;37.80;24.20;;;30.00;99.90;;;;;;4893767;29;20382;-64
2022/11/08 12:38:12;;;;;;;40.63;21.80;;;29.90;99.90;;;;;;4865878;29;20090;-64
2022/11/08 12:40:45;;;;;;;36.20;21.83;;;29.60;99.90;;;;;;4865378;29;20033;-66
2022/11/08 12:43:17;;;;;;;33.78;21.23;;;29.50;99.90;;;;;;4865976;29;20491;-64
2022/11/08 12:45:56;;;;;;;38.40;22.92;;;29.50;99.90;;;;;;4865844;29;20400;-63
2022/11/08 12:49:02;;;;;;;40.88;24.58;;;29.50;99.90;;;;;;4869111;29;20408;-64
2022/11/08 12:51:31;;;;;;;43.05;25.38;;;29.60;99.90;;;;;;4864077;29;20038;-64
2022/11/08 12:54:17;;;;;;;39.40;25.27;;;29.50;99.90;;;;;;4875743;29;20025;-64
2022/11/08 12:56:47;;;;;;;34.20;20.92;;;29.50;99.90;;;;;;4870494;29;20044;-64
2022/11/08 12:59:21;;;;;;;31.88;18.38;;;29.40;99.90;;;;;;4871504;29;20037;-64
2022/11/08 13:01:49;;;;;;;36.88;19.08;;;29.40;99.90;;;;;;4878573;29;20065;-64
2022/11/08 13:04:31;;;;;;;28.10;17.70;;;29.40;99.90;;;;;;4909512;28;20046;-63
2022/11/08 13:07:13;;;;;;;;;;;29.40;99.90;;;;;;4981074;28;20515;-62